Latest Coastal Weather Observations for Geraldton Airport

IDW60701

Issued at 10:53 pm WST Wednesday 26 July 2017 (issued every 10 minutes, with the page automatically refreshed every 10 minutes)

About coastal observations | Map of coastal stations | Coastal observations for WA | Marine services | Other Formats
Station Details ID: 008315 Name: GERALDTON AIRPORT Lat: -28.80 Lon: 114.70 Height: 29.7 m
Data from the previous 72 hours. | See also: Recent months at Geraldton Airport
Date/Time
WST
Temp
°C
Wind Pressure Rain since
9am
mm
Weather Cloud Vis
km
Sea
Height
m
Swell
Dir  Spd
kts
Gust
kts
hPa Trend Height
m
Period
s
Dir
26/10:30pm 13.5 N 5 8 1020.5 - 0.0 - - 10 - - - -
26/10:00pm 14.9 NNE 8 10 1020.7 - 0.0 - - 10 - - - -
26/09:30pm 15.0 NNE 7 8 1020.8 - 0.0 - Partly cloudy 10 - - - -
26/09:00pm 15.4 NNE 8 9 1021.1 - 0.0 - Cloudy 10 - - - -
26/08:30pm 15.3 NNE 8 9 1021.0 - 0.0 - Partly cloudy 10 - - - -
26/08:00pm 16.1 NNE 7 8 1020.9 - 0.0 - Cloudy 10 - - - -
26/07:30pm 15.9 NNE 5 6 1020.9 - 0.0 - Partly cloudy 10 - - - -
26/07:00pm 14.8 N 5 6 1020.6 - 0.0 - Partly cloudy 10 - - - -
26/06:30pm 15.9 N 5 6 1020.5 - 0.0 - Partly cloudy 10 - - - -
26/06:00pm 16.3 N 5 6 1020.5 - 0.0 - Partly cloudy 10 - - - -
26/05:30pm 18.1 N 7 9 1020.2 - 0.0 - Partly cloudy 10 - - - -
26/05:00pm 17.9 N 7 8 1020.2 - 0.0 - - 10 - - - -
26/04:30pm 19.4 NNW 7 9 1020.2 - 0.0 - Partly cloudy 10 - - - -
26/04:00pm 18.9 NNW 7 11 1020.1 - 0.0 - Partly cloudy 10 - - - -
26/03:30pm 17.8 N 9 11 1019.9 - 0.0 - Partly cloudy 10 - - - -
26/03:07pm 17.1 N 8 11 1019.9 - 0.0 - Partly cloudy 10 - - - -
26/03:00pm 16.5 NW 11 15 1020.1 - 0.0 - Cloudy 8 - - - -
26/02:39pm 17.5 W 13 18 1020.0 - 0.0 - Partly cloudy 7 - - - -
26/02:30pm 19.0 NW 12 20 1019.7 - 0.0 Showers Mostly clear 9 - - - -
26/02:00pm 20.5 NW 12 15 1019.3 - 0.0 - Mostly clear 10 - - - -
26/01:30pm 20.8 NNW 10 16 1019.5 - 0.0 - Partly cloudy 10 - - - -
26/01:00pm 21.2 NW 10 14 1019.8 - 0.0 - Mostly clear 10 - - - -
26/12:30pm 21.2 WNW 9 13 1020.1 - 0.0 - Mostly clear 10 - - - -
26/12:00pm 20.2 NNW 7 9 1020.6 - 0.0 - Cloudy 10 - - - -
26/11:30am 19.2 NNE 7 8 1020.9 - 0.0 - Mostly clear 10 - - - -
26/11:00am 18.1 NNE 10 12 1021.0 - 0.0 - Mostly clear 10 - - - -
26/10:30am 17.6 NNE 10 14 1021.1 - 0.0 - Mostly clear 10 - - - -
26/10:00am 15.9 NNE 11 14 1021.2 - 0.0 - Mostly clear 10 - - - -
26/09:30am 14.0 NNE 13 16 1021.0 - 0.0 - Mostly clear 10 - - - -
26/09:00am 12.5 NNE 13 17 1020.9 - 0.2 - Mostly clear 10 - - - -
26/08:30am 10.9 NNE 13 17 1020.7 - 0.2 - Mostly clear 10 - - - -
26/08:00am 10.0 NNE 13 16 1020.4 - 0.2 - Mostly clear 10 - - - -
26/07:30am 8.9 NNE 14 16 1020.2 - 0.2 - Mostly clear 10 - - - -
26/07:00am 8.8 NNE 13 16 1019.6 - 0.2 - - 10 - - - -
26/06:30am 9.3 NNE 13 16 1019.6 - 0.2 - - 10 - - - -
26/06:00am 8.5 NNE 13 16 1019.5 - 0.2 - - 10 - - - -
26/05:30am 8.5 NNE 13 15 1019.4 - 0.2 - - 10 - - - -
26/05:00am 8.2 NNE 12 15 1019.4 - 0.2 - - 10 - - - -
26/04:30am 8.3 NNE 11 13 1019.5 - 0.2 - - 10 - - - -
26/04:00am 8.8 NNE 11 13 1019.5 - 0.2 - - 10 - - - -
26/03:30am 8.6 NNE 11 13 1019.4 - 0.2 - - 10 - - - -
26/03:00am 9.1 NNE 10 12 1019.6 - 0.2 - - 10 - - - -
26/02:30am 9.0 NNE 11 13 1019.5 - 0.2 - - 10 - - - -
26/02:00am 8.6 NNE 11 13 1019.5 - 0.2 - - 10 - - - -
26/01:30am 9.0 NNE 11 13 1019.8 - 0.2 - - 10 - - - -
26/01:00am 9.0 NNE 11 13 1019.9 - 0.2 - - 10 - - - -
26/12:30am 9.4 NNE 11 13 1020.1 - 0.2 - - 10 - - - -
26/12:00am 9.7 NNE 10 11 1020.4 - 0.2 - - 10 - - - -
 
Date/Time
WST
Temp
°C
Wind Pressure Rain since
9am
mm
Weather Cloud Vis
km
Sea
Height
m
Swell
Dir  Spd
kts
Gust
kts
hPa Trend Height
m
Period
s
Dir
25/11:30pm 10.1 NNE 10 11 1020.4 - 0.2 - - 10 - - - -
25/11:00pm 9.9 NNE 9 11 1020.8 - 0.2 - - 10 - - - -
25/10:30pm 10.1 NNE 11 12 1020.7 - 0.2 - - 10 - - - -
25/10:00pm 10.1 NNE 8 9 1021.0 - 0.2 - - 10 - - - -
25/09:30pm 10.1 N 7 8 1021.0 - 0.2 - - 10 - - - -
25/09:00pm 10.0 NNE 7 8 1020.9 - 0.2 - - 10 - - - -
25/08:30pm 9.5 NE 5 6 1021.1 - 0.0 - - 10 - - - -
25/08:00pm 10.2 NE 2 3 1021.0 - 0.0 - - 10 - - - -
25/07:30pm 11.9 NE 3 3 1020.8 - 0.0 - - 10 - - - -
25/07:00pm 12.1 E 2 3 1020.5 - 0.0 - - 10 - - - -
25/06:30pm 14.8 S 1 3 1020.3 - 0.0 - - 10 - - - -
25/06:00pm 14.1 SW 4 5 1020.3 - 0.0 - - 10 - - - -
25/05:30pm 16.3 SW 7 8 1020.1 - 0.0 - - 10 - - - -
25/05:00pm 17.9 WSW 7 10 1020.1 - 0.0 - - 10 - - - -
25/04:30pm 18.6 WSW 8 10 1020.1 - 0.0 - - 10 - - - -
25/04:00pm 19.2 WSW 7 10 1019.9 - 0.0 - - 10 - - - -
25/03:30pm 19.3 W 9 12 1020.1 - 0.0 - - 10 - - - -
25/03:00pm 19.5 W 9 11 1020.1 - 0.0 - Mostly clear 10 - - - -
25/02:30pm 19.9 W 6 10 1020.0 - 0.0 - Mostly clear 10 - - - -
25/02:00pm 19.7 SE 4 7 1020.1 - 0.0 - Mostly clear 10 - - - -
25/10:30am 17.5 NE 10 13 1022.3 - 0.0 - Mostly clear 10 - - - -
25/10:00am 16.0 NNE 9 11 1022.5 - 0.0 - Mostly clear 10 - - - -
25/09:30am 14.0 NNE 12 15 1022.5 - 0.0 - Mostly clear 10 - - - -
25/09:00am 12.5 NNE 12 15 1022.2 - 0.0 - Mostly clear 10 - - - -
25/08:30am 11.6 NNE 12 16 1022.2 - 0.0 - Mostly clear 10 - - - -
25/08:00am 10.7 NNE 11 14 1022.1 - 0.0 - Mostly clear 10 - - - -
25/07:30am 9.7 NNE 10 12 1021.7 - 0.0 - Mostly clear 10 - - - -
25/07:00am 9.9 NNE 9 11 1021.7 - 0.0 - - 10 - - - -
25/06:30am 10.3 NNE 8 9 1021.4 - 0.0 - - 10 - - - -
25/06:00am 10.1 NE 8 8 1021.4 - 0.0 - - 10 - - - -
25/05:30am 11.9 ENE 4 5 1021.2 - 0.0 - Partly cloudy 10 - - - -
25/05:00am 12.9 ENE 5 6 1021.1 - 0.0 - Cloudy 10 - - - -
25/04:30am 13.1 NNE 7 8 1021.3 - 0.0 - Cloudy 10 - - - -
25/04:00am 13.0 NNE 5 6 1021.3 - 0.0 - Cloudy 10 - - - -
25/03:30am 12.7 NE 6 7 1021.3 - 0.0 - Cloudy 10 - - - -
25/03:00am 12.6 NE 5 7 1021.5 - 0.0 - Cloudy 10 - - - -
25/02:30am 12.5 NE 6 8 1021.4 - 0.0 - Cloudy 10 - - - -
25/02:00am 12.5 NNE 8 9 1021.3 - 0.0 - Cloudy 10 - - - -
25/01:30am 12.2 NNE 8 9 1021.4 - 0.0 - Partly cloudy 10 - - - -
25/01:00am 12.2 NNE 8 9 1021.5 - 0.0 - Partly cloudy 10 - - - -
25/12:30am 12.2 NNE 7 8 1021.6 - 0.0 - Partly cloudy 10 - - - -
25/12:00am 12.5 NNE 7 8 1021.7 - 0.0 - Mostly cloudy 10 - - - -
 
Date/Time
WST
Temp
°C
Wind Pressure Rain since
9am
mm
Weather Cloud Vis
km
Sea
Height
m
Swell
Dir  Spd
kts
Gust
kts
hPa Trend Height
m
Period
s
Dir
24/11:30pm 12.8 NNE 6 7 1021.6 - 0.0 - Partly cloudy 10 - - - -
24/11:00pm 12.4 NNE 6 7 1021.5 - 0.0 - Cloudy 10 - - - -
24/10:30pm 11.7 NNE 5 6 1021.5 - 0.0 - Partly cloudy 10 - - - -
24/10:00pm 11.9 NE 5 5 1021.5 - 0.0 - Partly cloudy 10 - - - -
24/09:30pm 12.7 NE 5 5 1021.5 - 0.0 - Partly cloudy 10 - - - -
24/09:00pm 13.6 W 1 4 1021.5 - 0.0 - Cloudy 10 - - - -
24/08:30pm 14.7 SW 4 5 1021.4 - 0.0 - Partly cloudy 10 - - - -
24/08:00pm 15.4 WSW 5 7 1021.4 - 0.0 - Cloudy 10 - - - -
24/07:30pm 14.4 SW 5 6 1021.2 - 0.0 - Partly cloudy 10 - - - -
24/07:00pm 14.7 WSW 7 8 1021.0 - 0.0 - Partly cloudy 10 - - - -
24/06:30pm 15.2 WSW 8 10 1020.7 - 0.0 - Partly cloudy 10 - - - -
24/06:00pm 15.5 SW 8 11 1020.3 - 0.0 - - 10 - - - -
24/05:30pm 17.6 WSW 9 12 1020.0 - 0.0 - Partly cloudy 10 - - - -
24/05:00pm 18.3 WSW 7 11 1019.9 - 0.0 - Partly cloudy 10 - - - -
24/04:30pm 18.0 WSW 9 11 1019.7 - 0.0 - Partly cloudy 10 - - - -
24/04:00pm 19.0 W 8 12 1019.5 - 0.0 - Partly cloudy 10 - - - -
24/03:30pm 18.9 WSW 11 14 1019.5 - 0.0 - Partly cloudy 10 - - - -
24/03:00pm 19.2 W 9 13 1019.6 - 0.0 - Partly cloudy 10 - - - -
24/02:30pm 19.6 W 8 13 1019.4 - 0.0 - Partly cloudy 10 - - - -
24/02:00pm 19.3 W 9 14 1019.6 - 0.0 - Partly cloudy 10 - - - -
24/01:30pm 18.3 WSW 9 12 1019.6 - 0.0 - Partly cloudy 10 - - - -
24/01:00pm 19.2 W 8 11 1019.8 - 0.0 - Partly cloudy 10 - - - -
24/12:30pm 18.9 W 6 9 1020.2 - 0.0 - Partly cloudy 10 - - - -
24/12:00pm 18.4 W 5 6 1020.7 - 0.0 - Partly cloudy 10 - - - -
24/11:30am 18.8 WSW 5 8 1021.0 - 0.0 - Partly cloudy 10 - - - -
24/11:00am 18.6 NE 1 4 1021.3 - 0.0 - Partly cloudy 10 - - - -
24/10:30am 16.8 NNE 6 8 1021.6 - 0.0 - Partly cloudy 10 - - - -
24/10:00am 15.7 N 8 10 1021.7 - 0.0 Showers Mostly clear 10 - - - -
24/09:30am 14.8 NNE 9 11 1021.6 - 0.0 - Mostly clear 10 - - - -
24/09:00am 13.8 N 7 10 1021.5 - 7.6 - Cloudy 10 - - - -
24/08:30am 13.3 N 9 12 1021.1 - 7.6 - Mostly clear 10 - - - -
24/08:00am 12.7 NNE 10 12 1020.6 - 7.6 - Mostly clear 10 - - - -
24/07:30am 12.4 NNE 9 11 1020.4 - 7.6 - Mostly clear 10 - - - -
24/07:00am 12.7 NNE 7 9 1020.3 - 7.6 - Partly cloudy 10 - - - -
24/06:44am 13.0 N 6 7 1020.2 - 7.6 - Partly cloudy 10 - - - -
24/06:32am 12.9 N 6 8 1020.1 - 7.6 - Partly cloudy 7 - - - -
24/06:30am 12.8 N 7 8 1020.0 - 7.6 - Partly cloudy 8 - - - -
24/06:00am 12.4 NNE 7 8 1019.7 - 7.6 - Cloudy 10 - - - -
24/05:30am 12.5 NNE 6 7 1019.5 - 7.6 - Partly cloudy 10 - - - -
24/05:00am 13.2 E 1 3 1019.5 - 7.6 - Partly cloudy 10 - - - -
24/04:30am 12.9 NNW 5 9 1019.4 - 7.6 - Partly cloudy 10 - - - -
24/04:29am 12.9 N 5 9 1019.4 - 7.6 - Partly cloudy 10 - - - -
24/04:14am 12.7 NE 5 6 1019.3 - 7.6 - Partly cloudy 7 - - - -
24/04:00am 12.5 N 7 8 1019.3 - 7.4 - Partly cloudy 10 - - - -
24/03:30am 12.0 NNE 7 8 1019.1 - 7.4 - Partly cloudy 10 - - - -
24/03:00am 12.2 NNE 6 7 1019.4 - 7.4 - Partly cloudy 10 - - - -
24/02:30am 12.6 NNE 5 7 1019.3 - 7.4 - Partly cloudy 10 - - - -
24/02:00am 12.3 NNE 6 8 1019.3 - 7.4 - Partly cloudy 10 - - - -
24/01:30am 12.9 NNE 7 8 1019.3 - 7.2 - Partly cloudy 10 - - - -
24/01:00am 13.7 NNE 5 6 1019.1 - 7.2 - Partly cloudy 10 - - - -
24/12:30am 13.8 NNE 4 5 1019.1 - 7.0 - Partly cloudy 10 - - - -
24/12:00am 13.4 ENE 4 6 1019.4 - 7.0 - Mostly cloudy 10 - - - -
 
Date/Time
WST
Temp
°C
Wind Pressure Rain since
9am
mm
Weather Cloud Vis
km
Sea
Height
m
Swell
Dir  Spd
kts
Gust
kts
hPa Trend Height
m
Period
s
Dir
23/11:30pm 13.9 E 1 3 1019.3 - 7.0 - Partly cloudy 10 - - - -
23/11:00pm 14.4 NNW 5 6 1019.4 - 7.0 - Partly cloudy 10 - - - -

Other Formats:

Comma delimited format used in spreadsheet applications
http://www.bom.gov.au/fwo/IDW60701/IDW60701.94403.axf

JavaScript Object Notation format (JSON) in row-major order
http://www.bom.gov.au/fwo/IDW60701/IDW60701.94403.json